Princeton, Missouri
Current Conditions -  °F | °C
As of 7:53 PM on Saturday 25 Oct 2014 (Local Time) from KLWD Reporting Station
Clear Clear  
Wind Chill: 59°   Ceiling: Unl
Heat Index: 59°   Visibility: 10mi
Dew Point: 44°   Wind: 6mph
Humidity: 58%   Direction: 30°NNE
Pressure: 30.06"   Gusts: NA
Location:  40.4°N, 93.58°W
Report Text: KLWD 260053Z AUTO 03005KT 10SM CLR 15/07 A3006 RMK AO2 SLP178 T01500067
Loading
Personal Weather Stations






























Interactive Weather Map New forecast layout! Learn more

10-Day Weather Forecast

Advertisements
Track Severe Weather on mobile